Afton Municipal Airport

About
Name: Afton Municipal Airport
Identifier:  AFO/KAFO
Serves:  Afton, Wyoming
Owner:  Town of Afton
Public/Private:  Public
Local Time:  18. Aug 12:12 MDT
Description: Afton Municipal Airport is a town-owned, public-use airport located one nautical mile southwest of the central business district of Afton, a town in Lincoln County, Wyoming, United States. It is also known as Afton-Lincoln County Airport.[2]
Source: Wikipedia
Location
Runways
Identifier Length (m/ft) Surface
16/34 7,023/7,023 Asphalt
Flights per Day
0 flights
Distance: 1,441km (895mi)
Punctuality
0% (0 flights per day delayed)
Delay Average: 28 minutes
Current Weather
 23 C (Humidity: 23%)
  3kt (5km/h / 3mph) from 90°
  16km (10 mi.)
 
 METAR KAFO 181755Z AUTO 09003KT 10SM CLR 23/01 A3012 RMK AO2

Current Flights

Departures
Number Departure To Airline
Arrivals
Number Arrival From Airline

Current Delays

Departures
N/A
Arrivals
N/A

Destinations

Top Destinations
Airport Flights
per week
Seats
per week
  Denver (APA) 0 - 0 0
  Salt Lake City (SLC) 0 - 0 0
  Ogden (OGD) 0 - 0 0
  Mankato (MKT) 0 - 0 0
  Madera (MAE) 0 - 0 0
  Akron (AKO) 0 - 0 0

Airlines & Planes

Top Airlines
Airline Flights
per Day
Seats
per Day
Nordwind Airlines 0 -
  National Airlines 0 -
  Novair 0 -
Top Plane Types
Model Flights Seats
Cessna C560 0.0/day - 0